Time;durP1;ratioP1;P1;durP2;ratioP2;P2;SDS_P1;SDS_P2;PMS_P1;PMS_P2;Temp;Humidity;BMP_temperature;BMP_pressure;BME280_temperature;BME280_humidity;BME280_pressure;Samples;Min_cycle;Max_cycle;Signal;HPM_P1;HPM_P2
2021/05/26 00:01:32;;;;;;;7.70;1.10;;;9.90;63.10;;;;;;6182123;23;20005;-81
2021/05/26 00:03:57;;;;;;;2.57;0.53;;;9.90;63.40;;;;;;6182454;23;20009;-81
2021/05/26 00:06:23;;;;;;;1.90;0.57;;;9.90;63.50;;;;;;6182526;23;20392;-82
2021/05/26 00:08:49;;;;;;;2.90;0.63;;;9.80;64.30;;;;;;6182388;23;20032;-81
2021/05/26 00:11:17;;;;;;;1.97;0.83;;;9.80;64.10;;;;;;6183564;23;20001;-81
2021/05/26 00:13:43;;;;;;;1.70;0.80;;;9.80;64.50;;;;;;6181932;23;20071;-81
2021/05/26 00:16:09;;;;;;;5.43;0.87;;;9.80;64.80;;;;;;6183056;23;20063;-81
2021/05/26 00:18:36;;;;;;;2.87;0.80;;;9.80;65.10;;;;;;6182227;23;20009;-81
2021/05/26 00:21:04;;;;;;;3.73;0.70;;;9.80;65.30;;;;;;6182760;23;20008;-81
2021/05/26 00:23:30;;;;;;;3.57;0.60;;;9.80;65.50;;;;;;6182178;23;20056;-82
2021/05/26 00:25:56;;;;;;;3.07;0.50;;;9.80;65.50;;;;;;6183504;23;20001;-80
2021/05/26 00:28:22;;;;;;;2.40;0.50;;;9.80;65.10;;;;;;6185268;23;20016;-80
2021/05/26 00:30:50;;;;;;;1.63;0.60;;;9.80;64.50;;;;;;6186578;23;20024;-81
2021/05/26 00:33:18;;;;;;;2.47;0.50;;;9.80;64.00;;;;;;6183062;23;20012;-81
2021/05/26 00:35:43;;;;;;;3.73;1.07;;;9.70;63.80;;;;;;6182540;23;20001;-81
2021/05/26 00:38:10;;;;;;;3.50;1.00;;;9.70;63.70;;;;;;6183013;23;20005;-81
2021/05/26 00:40:36;;;;;;;1.30;0.43;;;9.70;63.60;;;;;;6181652;23;20001;-81
2021/05/26 00:43:02;;;;;;;3.17;0.63;;;9.80;63.70;;;;;;6182099;23;20032;-81
2021/05/26 00:45:28;;;;;;;2.50;0.90;;;9.70;63.80;;;;;;6213209;23;20008;-81
2021/05/26 00:47:54;;;;;;;1.70;0.60;;;9.50;64.00;;;;;;6187006;23;20320;-82
2021/05/26 00:50:24;;;;;;;1.40;0.60;;;9.50;64.40;;;;;;6184520;23;20005;-81
2021/05/26 00:52:52;;;;;;;4.53;0.57;;;9.60;64.20;;;;;;6184601;23;20371;-81
2021/05/26 00:55:21;;;;;;;2.70;0.77;;;9.60;64.80;;;;;;6212284;23;20438;-81
2021/05/26 00:57:48;;;;;;;3.57;1.13;;;9.50;64.30;;;;;;6186535;23;20011;-81
2021/05/26 01:00:17;;;;;;;2.40;0.63;;;9.50;64.40;;;;;;6186065;23;20005;-81
2021/05/26 01:02:45;;;;;;;4.97;0.67;;;9.40;64.70;;;;;;6186826;23;20005;-82
2021/05/26 01:05:12;;;;;;;4.00;1.00;;;9.50;65.10;;;;;;6186516;23;20320;-82
2021/05/26 01:07:39;;;;;;;4.40;0.93;;;9.50;65.30;;;;;;6187525;23;20431;-80
2021/05/26 01:10:07;;;;;;;4.23;0.80;;;9.50;65.60;;;;;;6186329;23;20424;-81
2021/05/26 01:12:32;;;;;;;2.80;0.63;;;9.40;65.70;;;;;;6187431;23;20008;-81
2021/05/26 01:15:00;;;;;;;2.37;0.60;;;9.40;65.60;;;;;;6185884;23;20005;-81
2021/05/26 01:17:26;;;;;;;4.23;0.90;;;9.40;65.60;;;;;;6185660;23;20458;-81
2021/05/26 01:19:52;;;;;;;2.20;0.73;;;9.20;65.90;;;;;;6187308;23;20008;-81
2021/05/26 01:22:17;;;;;;;4.63;0.70;;;9.20;66.40;;;;;;6186740;23;20320;-81
2021/05/26 01:24:43;;;;;;;1.60;0.60;;;9.20;66.60;;;;;;6185868;23;20466;-81
2021/05/26 01:27:09;;;;;;;2.83;0.60;;;9.20;66.50;;;;;;6186555;23;20316;-81
2021/05/26 01:29:35;;;;;;;2.70;0.70;;;9.10;66.40;;;;;;6213710;23;20005;-82
2021/05/26 01:32:03;;;;;;;1.70;0.50;;;9.20;66.20;;;;;;6186633;23;20015;-81
2021/05/26 01:34:29;;;;;;;3.93;0.77;;;9.10;66.00;;;;;;6186778;23;20001;-81
2021/05/26 01:36:55;;;;;;;1.30;0.70;;;9.10;66.10;;;;;;6213516;23;20063;-81
2021/05/26 01:39:20;;;;;;;2.50;0.60;;;9.10;66.00;;;;;;6186428;23;20446;-81
2021/05/26 01:41:47;;;;;;;2.30;0.60;;;9.00;65.60;;;;;;6187133;23;20013;-81
2021/05/26 01:44:13;;;;;;;2.77;0.60;;;9.00;65.20;;;;;;6185998;23;20454;-81
2021/05/26 01:46:41;;;;;;;3.03;0.70;;;8.90;65.20;;;;;;6213525;23;20308;-81
2021/05/26 01:49:08;;;;;;;2.43;0.70;;;9.00;65.20;;;;;;6213097;23;20008;-81
2021/05/26 01:51:34;;;;;;;2.87;0.53;;;9.10;64.90;;;;;;6187301;23;20075;-81
2021/05/26 01:54:01;;;;;;;1.77;0.70;;;9.00;65.00;;;;;;6187002;23;20320;-81
2021/05/26 01:56:28;;;;;;;1.67;0.60;;;9.00;64.40;;;;;;6186565;23;20328;-80
2021/05/26 01:58:56;;;;;;;1.67;0.53;;;8.90;64.30;;;;;;6187019;23;20098;-81
2021/05/26 02:01:24;;;;;;;2.03;0.57;;;8.90;64.20;;;;;;6186162;23;20013;-81
2021/05/26 02:03:50;;;;;;;2.50;0.53;;;8.80;64.30;;;;;;6186670;23;20008;-81
2021/05/26 02:06:17;;;;;;;3.07;0.70;;;8.80;64.40;;;;;;6186670;23;20493;-81
2021/05/26 02:08:45;;;;;;;0.97;0.50;;;8.70;64.50;;;;;;6186489;23;20005;-81
2021/05/26 02:14:00;;;;;;;0.97;0.50;;;8.90;64.70;;;;;;6213279;23;20015;-81
2021/05/26 02:16:26;;;;;;;2.40;0.90;;;9.00;64.60;;;;;;6187407;23;20008;-81
2021/05/26 02:18:53;;;;;;;6.47;0.90;;;9.00;64.60;;;;;;6188218;23;20020;-80
2021/05/26 02:21:19;;;;;;;6.37;1.03;;;9.00;64.60;;;;;;6187801;23;20066;-81
2021/05/26 02:23:44;;;;;;;1.73;0.80;;;9.00;65.00;;;;;;6188266;23;20423;-81
2021/05/26 02:26:10;;;;;;;9.47;1.30;;;8.90;65.30;;;;;;6189136;23;20451;-81
2021/05/26 02:28:36;;;;;;;7.53;1.30;;;9.00;65.40;;;;;;6188914;23;20001;-82
2021/05/26 02:31:01;;;;;;;1.93;1.03;;;9.00;65.30;;;;;;6188508;23;20000;-81
2021/05/26 02:33:27;;;;;;;2.10;1.07;;;9.00;65.30;;;;;;6189224;23;20009;-81
2021/05/26 02:35:53;;;;;;;4.50;1.20;;;9.00;65.40;;;;;;6188693;23;20004;-81
2021/05/26 02:38:19;;;;;;;2.10;0.80;;;8.90;65.60;;;;;;6188871;23;20015;-81
2021/05/26 02:40:44;;;;;;;2.97;1.77;;;8.90;65.80;;;;;;6188475;23;20012;-81
2021/05/26 02:43:10;;;;;;;3.53;2.37;;;8.80;66.30;;;;;;6187941;23;20015;-81
2021/05/26 02:45:37;;;;;;;7.07;1.50;;;8.80;66.50;;;;;;6187286;23;20083;-81
2021/05/26 02:48:03;;;;;;;4.13;1.77;;;8.80;66.70;;;;;;6188718;23;20039;-81
2021/05/26 02:50:29;;;;;;;4.10;1.30;;;8.70;66.90;;;;;;6184961;23;20000;-81
2021/05/26 02:52:55;;;;;;;1.97;1.03;;;8.70;67.30;;;;;;6185539;23;20012;-81
2021/05/26 02:55:24;;;;;;;2.20;0.77;;;8.70;67.50;;;;;;6214936;23;20005;-81
2021/05/26 02:57:50;;;;;;;2.03;0.90;;;8.70;67.50;;;;;;6187760;23;20457;-81
2021/05/26 03:00:19;;;;;;;5.43;0.80;;;8.70;67.30;;;;;;6186528;23;20095;-81
2021/05/26 03:02:45;;;;;;;3.93;0.77;;;8.70;66.90;;;;;;6187772;23;20012;-81
2021/05/26 03:05:13;;;;;;;3.63;1.10;;;8.60;66.90;;;;;;6188207;23;20057;-81
2021/05/26 03:07:39;;;;;;;5.87;0.80;;;8.60;66.50;;;;;;6214862;23;20004;-80
2021/05/26 03:10:06;;;;;;;3.67;0.80;;;8.60;66.50;;;;;;6187465;23;20009;-82
2021/05/26 03:12:32;;;;;;;1.43;0.60;;;8.60;66.70;;;;;;6188027;23;20001;-81
2021/05/26 03:14:58;;;;;;;1.47;0.67;;;8.60;66.50;;;;;;6187425;23;20554;-83
2021/05/26 03:17:28;;;;;;;3.53;1.10;;;8.60;66.60;;;;;;6188242;23;20004;-81
2021/05/26 03:19:57;;;;;;;3.37;0.70;;;8.60;66.90;;;;;;6187844;23;20028;-81
2021/05/26 03:22:23;;;;;;;2.87;0.80;;;8.60;67.00;;;;;;6188153;23;20004;-81
2021/05/26 03:24:49;;;;;;;1.47;0.80;;;8.50;67.00;;;;;;6185954;23;20070;-81
2021/05/26 03:27:15;;;;;;;3.00;0.97;;;8.50;67.20;;;;;;6187049;23;20032;-81
2021/05/26 03:29:42;;;;;;;3.33;0.90;;;8.50;67.40;;;;;;6188110;23;20518;-81
2021/05/26 03:32:07;;;;;;;3.43;0.87;;;8.50;67.30;;;;;;6187470;23;20019;-81
2021/05/26 03:34:34;;;;;;;3.37;1.27;;;8.50;67.40;;;;;;6188167;23;20016;-81
2021/05/26 03:37:00;;;;;;;5.03;1.67;;;8.60;67.60;;;;;;6187294;23;20004;-81
2021/05/26 03:39:25;;;;;;;6.70;1.83;;;8.60;67.60;;;;;;6188139;23;20016;-81
2021/05/26 03:41:51;;;;;;;10.97;5.23;;;8.70;67.60;;;;;;6186718;23;20078;-81
2021/05/26 03:44:17;;;;;;;7.13;1.97;;;8.70;67.60;;;;;;6182797;23;20088;-82
2021/05/26 03:46:57;;;;;;;2.37;1.20;;;8.70;67.60;;;;;;6182710;23;20013;-81
2021/05/26 03:49:23;;;;;;;2.30;1.33;;;8.60;67.70;;;;;;6182915;23;20009;-82
2021/05/26 03:51:49;;;;;;;2.63;0.90;;;8.70;67.90;;;;;;6182944;23;20063;-80
2021/05/26 03:54:14;;;;;;;2.47;1.40;;;8.70;67.80;;;;;;6182820;23;20045;-82
2021/05/26 03:56:42;;;;;;;2.20;1.00;;;8.70;67.80;;;;;;6183289;23;20479;-81
2021/05/26 03:59:09;;;;;;;3.73;1.27;;;8.70;67.80;;;;;;6182394;23;20011;-81
2021/05/26 04:01:35;;;;;;;4.77;2.03;;;8.80;68.00;;;;;;6182220;23;20108;-81
2021/05/26 04:04:02;;;;;;;2.70;1.40;;;8.80;68.10;;;;;;6183057;23;20001;-81
2021/05/26 04:06:28;;;;;;;3.97;1.50;;;8.70;68.20;;;;;;6183149;23;20331;-81
2021/05/26 04:08:53;;;;;;;8.80;2.00;;;8.80;68.20;;;;;;6183070;23;20005;-81
2021/05/26 04:11:19;;;;;;;6.10;2.50;;;8.70;68.20;;;;;;6184265;23;20008;-81
2021/05/26 04:13:45;;;;;;;5.43;2.10;;;8.70;68.20;;;;;;6182168;23;20104;-81
2021/05/26 04:16:11;;;;;;;5.97;2.20;;;8.70;68.40;;;;;;6182543;23;20016;-81
2021/05/26 04:18:37;;;;;;;5.10;2.37;;;8.70;68.60;;;;;;6182291;23;20012;-81
2021/05/26 04:21:03;;;;;;;5.27;1.90;;;8.80;68.60;;;;;;6183280;23;20079;-81
2021/05/26 04:23:29;;;;;;;5.57;2.00;;;8.80;68.60;;;;;;6182943;23;20719;-81
2021/05/26 04:25:54;;;;;;;5.37;2.43;;;8.80;68.80;;;;;;6182704;23;20036;-81
2021/05/26 04:28:22;;;;;;;5.73;2.43;;;8.80;68.90;;;;;;6182337;23;20005;-81
2021/05/26 04:30:48;;;;;;;6.90;2.33;;;8.80;69.10;;;;;;6181539;23;20011;-81
2021/05/26 04:33:16;;;;;;;5.60;2.00;;;8.70;69.30;;;;;;6183009;23;20036;-80
2021/05/26 04:35:42;;;;;;;4.77;1.80;;;8.70;69.50;;;;;;6182346;23;20020;-80
2021/05/26 04:38:08;;;;;;;7.00;1.87;;;8.80;69.50;;;;;;6182961;23;20320;-81
2021/05/26 04:40:33;;;;;;;5.63;2.17;;;8.70;69.20;;;;;;6182866;23;20008;-81
2021/05/26 04:42:59;;;;;;;3.93;1.90;;;8.70;69.30;;;;;;6182080;23;20001;-81
2021/05/26 04:45:25;;;;;;;3.57;2.10;;;8.70;69.40;;;;;;6181187;23;20025;-82
2021/05/26 04:47:51;;;;;;;7.43;2.10;;;8.70;69.40;;;;;;6182389;23;20315;-81
2021/05/26 04:50:17;;;;;;;5.33;1.87;;;8.70;69.60;;;;;;6183229;23;20016;-81
2021/05/26 04:52:42;;;;;;;4.83;1.93;;;8.70;69.60;;;;;;6183482;23;20000;-80
2021/05/26 04:55:09;;;;;;;4.93;1.90;;;8.80;69.30;;;;;;6182039;23;20016;-81
2021/05/26 04:57:35;;;;;;;7.40;2.00;;;8.80;69.20;;;;;;6183797;23;20005;-81
2021/05/26 05:00:00;;;;;;;6.90;2.70;;;8.80;69.50;;;;;;6183426;23;20005;-81
2021/05/26 05:02:26;;;;;;;8.00;2.47;;;8.90;69.30;;;;;;6182264;23;20151;-81
2021/05/26 05:04:52;;;;;;;4.53;2.50;;;8.80;69.30;;;;;;6183163;23;20036;-81
2021/05/26 05:07:17;;;;;;;9.70;2.30;;;8.90;69.50;;;;;;6183726;23;20001;-81
2021/05/26 05:09:43;;;;;;;5.53;2.37;;;8.80;69.70;;;;;;6182420;23;20108;-80
2021/05/26 05:12:09;;;;;;;5.17;2.43;;;8.90;70.00;;;;;;6182166;23;20009;-82
2021/05/26 05:14:34;;;;;;;4.27;1.80;;;8.90;69.90;;;;;;6182492;23;20426;-81
2021/05/26 05:17:00;;;;;;;6.93;2.47;;;8.90;70.00;;;;;;6182374;23;20036;-81
2021/05/26 05:19:26;;;;;;;4.33;1.57;;;8.90;70.00;;;;;;6183045;23;20439;-81
2021/05/26 05:21:51;;;;;;;5.27;2.20;;;9.00;70.00;;;;;;6185511;23;20056;-81
2021/05/26 05:24:18;;;;;;;7.63;2.10;;;9.00;69.80;;;;;;6183708;23;20009;-80
2021/05/26 05:26:44;;;;;;;4.57;1.43;;;9.10;70.50;;;;;;6186785;23;19997;-80
2021/05/26 05:29:09;;;;;;;7.90;1.70;;;9.20;69.90;;;;;;6185312;23;20020;-80
2021/05/26 05:31:35;;;;;;;6.53;1.63;;;9.30;69.90;;;;;;6183824;23;20005;-81
2021/05/26 05:34:01;;;;;;;3.97;1.70;;;9.50;69.70;;;;;;6180808;23;20336;-81
2021/05/26 05:36:26;;;;;;;5.37;1.73;;;9.60;69.40;;;;;;6182497;23;20005;-80
2021/05/26 05:38:52;;;;;;;7.33;2.87;;;9.70;69.00;;;;;;6183665;23;20023;-81
2021/05/26 05:41:18;;;;;;;5.23;1.70;;;9.70;68.90;;;;;;6182020;23;20009;-81
2021/05/26 05:43:44;;;;;;;6.83;2.30;;;9.80;68.50;;;;;;6192301;23;20320;-81
2021/05/26 05:46:09;;;;;;;5.57;2.57;;;9.80;68.50;;;;;;6186124;23;20007;-81
2021/05/26 05:48:35;;;;;;;5.60;2.73;;;10.00;68.60;;;;;;6186385;23;20028;-81
2021/05/26 05:51:01;;;;;;;5.43;2.30;;;10.10;68.00;;;;;;6187026;23;20080;-81
2021/05/26 05:53:27;;;;;;;6.30;2.13;;;10.10;67.80;;;;;;6185591;23;20442;-83
2021/05/26 05:55:52;;;;;;;9.13;2.60;;;10.20;67.80;;;;;;6187157;23;20000;-81
2021/05/26 05:58:22;;;;;;;3.13;1.90;;;10.30;67.40;;;;;;6186984;23;20035;-81
2021/05/26 06:00:49;;;;;;;3.57;2.20;;;10.20;66.70;;;;;;6186521;23;20003;-82
2021/05/26 06:03:14;;;;;;;13.53;2.77;;;10.10;66.80;;;;;;6185961;23;20083;-81
2021/05/26 06:05:40;;;;;;;8.97;2.43;;;10.00;67.00;;;;;;6185940;23;20028;-81
2021/05/26 06:08:06;;;;;;;6.00;2.10;;;9.90;66.70;;;;;;6186320;23;20020;-81
2021/05/26 06:10:31;;;;;;;4.10;2.00;;;9.80;66.80;;;;;;6186271;23;20005;-82
2021/05/26 06:13:07;;;;;;;5.90;1.90;;;9.70;66.50;;;;;;6212865;23;20008;-81
2021/05/26 06:15:34;;;;;;;3.37;1.77;;;9.80;66.50;;;;;;6185923;23;20051;-82
2021/05/26 06:18:00;;;;;;;3.67;1.60;;;9.80;66.40;;;;;;6185323;23;20015;-81
2021/05/26 06:20:26;;;;;;;4.87;2.23;;;9.90;66.20;;;;;;6186348;23;20043;-81
2021/05/26 06:22:52;;;;;;;3.83;2.23;;;9.80;65.60;;;;;;6212399;23;19996;-82
2021/05/26 06:25:18;;;;;;;6.77;2.00;;;9.70;65.70;;;;;;6187000;23;20009;-81
2021/05/26 06:27:44;;;;;;;7.50;1.80;;;9.80;66.40;;;;;;6187439;23;20442;-81
2021/05/26 06:30:10;;;;;;;4.93;1.63;;;9.80;66.00;;;;;;6185993;23;20009;-81
2021/05/26 06:32:36;;;;;;;4.40;1.67;;;9.90;65.70;;;;;;6185881;23;20004;-81
2021/05/26 06:35:03;;;;;;;6.33;1.87;;;10.10;65.70;;;;;;6185462;23;20403;-81
2021/05/26 06:37:28;;;;;;;7.23;1.60;;;10.10;65.50;;;;;;6185092;23;20082;-81
2021/05/26 06:39:54;;;;;;;3.87;1.50;;;10.10;65.40;;;;;;6185576;23;20008;-81
2021/05/26 06:42:20;;;;;;;3.23;1.60;;;10.10;65.40;;;;;;6185890;23;20008;-81
2021/05/26 06:44:46;;;;;;;3.77;1.67;;;10.20;65.10;;;;;;6184269;23;20099;-81
2021/05/26 06:47:11;;;;;;;2.73;1.20;;;10.30;65.10;;;;;;6186685;23;20005;-81
2021/05/26 06:49:37;;;;;;;3.63;1.50;;;10.40;64.90;;;;;;6185057;23;20467;-81
2021/05/26 06:52:03;;;;;;;5.30;1.80;;;10.60;64.90;;;;;;6181493;23;20005;-82
2021/05/26 06:54:29;;;;;;;5.57;1.40;;;10.80;65.10;;;;;;6160978;23;20390;-82
2021/05/26 06:56:55;;;;;;;2.97;1.80;;;11.00;64.90;;;;;;6186923;23;20019;-81
2021/05/26 06:59:21;;;;;;;8.57;2.30;;;11.20;64.70;;;;;;6185986;23;20033;-82
2021/05/26 07:01:47;;;;;;;6.00;1.60;;;11.30;64.50;;;;;;6186305;23;20028;-82
2021/05/26 07:04:13;;;;;;;3.73;1.60;;;11.40;64.10;;;;;;6188055;23;20004;-81
2021/05/26 07:06:39;;;;;;;2.77;1.47;;;11.40;63.70;;;;;;6188348;23;20821;-82
2021/05/26 07:09:04;;;;;;;2.90;1.27;;;11.40;63.60;;;;;;6188263;23;20035;-81
2021/05/26 07:11:30;;;;;;;4.47;1.60;;;11.50;63.40;;;;;;6187883;23;20004;-81
2021/05/26 07:14:05;;;;;;;3.57;1.50;;;11.50;63.10;;;;;;6186061;23;20095;-82
2021/05/26 07:16:43;;;;;;;1.73;1.20;;;11.60;63.10;;;;;;6188179;23;20012;-82
2021/05/26 07:19:09;;;;;;;2.47;1.10;;;11.80;62.80;;;;;;6188181;23;20107;-82
2021/05/26 07:21:35;;;;;;;5.13;1.37;;;12.00;62.70;;;;;;6188384;23;20032;-81
2021/05/26 07:24:00;;;;;;;2.83;1.30;;;12.20;62.40;;;;;;6215334;23;20362;-81
2021/05/26 07:26:26;;;;;;;1.70;1.13;;;12.30;62.40;;;;;;6188075;23;20356;-82
2021/05/26 07:28:52;;;;;;;3.30;1.60;;;12.50;62.00;;;;;;6188226;23;20000;-83
2021/05/26 07:31:18;;;;;;;4.33;1.40;;;12.60;61.40;;;;;;6188168;23;20126;-81
2021/05/26 07:33:45;;;;;;;3.63;1.23;;;12.60;61.00;;;;;;6188213;23;20592;-81
2021/05/26 07:36:21;;;;;;;5.63;1.30;;;12.70;61.00;;;;;;6187677;23;20000;-82
2021/05/26 07:38:47;;;;;;;2.33;1.27;;;12.90;61.10;;;;;;6213222;23;20026;-82
2021/05/26 07:41:13;;;;;;;4.23;1.37;;;13.00;60.40;;;;;;6187402;23;20091;-82
2021/05/26 07:43:39;;;;;;;3.83;1.43;;;13.00;60.30;;;;;;6187739;23;20017;-81
2021/05/26 07:46:05;;;;;;;3.17;1.57;;;13.10;60.40;;;;;;6188216;23;20311;-82
2021/05/26 07:48:31;;;;;;;2.57;1.20;;;13.10;60.10;;;;;;6186415;23;20003;-82
2021/05/26 07:50:57;;;;;;;3.93;1.50;;;13.10;60.10;;;;;;6189328;23;20004;-82
2021/05/26 07:53:23;;;;;;;1.80;1.10;;;13.10;59.80;;;;;;6189074;23;20083;-83
2021/05/26 07:55:49;;;;;;;2.13;1.07;;;13.20;59.60;;;;;;6187970;23;20004;-81
2021/05/26 07:58:15;;;;;;;2.60;1.13;;;13.20;59.20;;;;;;6188433;23;20011;-82
2021/05/26 08:00:40;;;;;;;1.70;0.80;;;13.30;59.00;;;;;;6189399;23;20008;-82
2021/05/26 08:03:06;;;;;;;1.67;0.83;;;13.50;58.70;;;;;;6187736;23;20004;-82
2021/05/26 08:05:33;;;;;;;2.50;0.93;;;13.60;57.90;;;;;;6189284;23;20005;-84
2021/05/26 08:07:58;;;;;;;1.37;0.80;;;13.70;57.20;;;;;;6189216;23;20001;-84
2021/05/26 08:10:24;;;;;;;1.43;0.70;;;13.80;57.30;;;;;;6188955;23;20008;-84
2021/05/26 08:12:50;;;;;;;1.80;0.87;;;14.00;57.50;;;;;;6189200;23;20008;-84
2021/05/26 08:15:16;;;;;;;4.10;0.90;;;14.20;57.40;;;;;;6188964;23;20047;-84
2021/05/26 08:17:43;;;;;;;6.53;0.90;;;14.40;56.40;;;;;;6189141;23;20440;-84
2021/05/26 08:20:09;;;;;;;1.80;0.77;;;14.50;56.20;;;;;;6181521;23;20019;-85
2021/05/26 08:22:35;;;;;;;1.50;0.70;;;14.70;55.60;;;;;;6184924;23;20005;-84
2021/05/26 08:25:02;;;;;;;2.93;0.93;;;14.80;55.10;;;;;;6188272;23;20015;-87
2021/05/26 08:27:28;;;;;;;3.63;1.27;;;14.90;54.30;;;;;;6187761;23;20004;-84
2021/05/26 08:29:55;;;;;;;5.53;1.73;;;15.00;54.20;;;;;;6187822;23;20005;-85
2021/05/26 08:32:22;;;;;;;5.03;2.25;;;15.20;54.30;;;;;;6187568;23;20084;-84
2021/05/26 08:34:49;;;;;;;5.63;1.85;;;15.30;53.50;;;;;;6187565;23;20431;-84
2021/05/26 08:37:15;;;;;;;9.00;1.70;;;15.30;53.00;;;;;;6188200;23;20055;-84
2021/05/26 08:39:41;;;;;;;5.60;2.33;;;15.40;53.20;;;;;;6213863;23;20011;-85
2021/05/26 08:42:08;;;;;;;5.38;1.77;;;15.50;53.30;;;;;;6214220;23;20004;-84
2021/05/26 08:44:33;;;;;;;6.03;1.70;;;15.60;53.40;;;;;;6187421;23;20086;-84
2021/05/26 08:47:02;;;;;;;9.65;1.92;;;15.80;53.70;;;;;;6187174;23;20434;-85
2021/05/26 08:49:30;;;;;;;3.95;1.88;;;16.10;53.40;;;;;;6187870;23;20011;-84
2021/05/26 08:52:00;;;;;;;5.00;1.55;;;16.30;53.80;;;;;;6213469;23;20003;-84
2021/05/26 08:54:26;;;;;;;5.32;1.70;;;16.50;53.70;;;;;;6214508;23;20024;-85
2021/05/26 08:56:52;;;;;;;4.30;1.48;;;16.70;53.50;;;;;;6186015;23;20011;-84
2021/05/26 08:59:17;;;;;;;2.80;1.08;;;16.70;53.10;;;;;;6186949;23;20402;-84
2021/05/26 09:01:55;;;;;;;3.00;1.00;;;16.80;52.80;;;;;;6212887;23;20028;-84
2021/05/26 09:04:28;;;;;;;2.08;0.95;;;16.80;52.40;;;;;;6186540;23;20012;-85
2021/05/26 09:07:12;;;;;;;2.58;1.02;;;16.90;52.40;;;;;;6186090;23;20000;-84
2021/05/26 09:09:52;;;;;;;3.20;1.02;;;17.00;52.30;;;;;;6186191;23;20004;-84
2021/05/26 09:12:38;;;;;;;2.40;1.10;;;17.10;51.80;;;;;;6185563;23;20324;-84
2021/05/26 09:15:15;;;;;;;2.05;0.90;;;17.30;51.70;;;;;;6186585;23;20501;-84
2021/05/26 09:17:42;;;;;;;3.88;1.42;;;17.40;51.60;;;;;;6214993;23;20008;-84
2021/05/26 09:20:24;;;;;;;5.30;1.27;;;17.50;51.30;;;;;;6214419;23;20400;-84
2021/05/26 09:23:05;;;;;;;3.75;1.00;;;17.70;50.90;;;;;;6188176;23;20016;-84
2021/05/26 09:25:33;;;;;;;5.15;1.30;;;17.80;50.10;;;;;;6187910;23;20062;-84
2021/05/26 09:28:17;;;;;;;2.13;1.02;;;17.70;50.00;;;;;;6188648;23;20067;-84
2021/05/26 09:30:45;;;;;;;4.72;1.13;;;17.80;49.50;;;;;;6188044;23;20331;-85
2021/05/26 09:33:31;;;;;;;7.32;0.98;;;17.90;49.90;;;;;;6187716;23;20003;-84
2021/05/26 09:36:17;;;;;;;3.97;0.88;;;18.20;49.80;;;;;;6188316;23;20446;-84
2021/05/26 09:38:46;;;;;;;2.63;0.77;;;18.40;48.90;;;;;;6181395;23;20015;-86
2021/05/26 09:41:25;;;;;;;1.77;0.82;;;18.50;49.00;;;;;;6183597;23;20384;-84
2021/05/26 09:44:00;;;;;;;2.17;0.80;;;18.60;48.80;;;;;;6186970;23;20020;-84
2021/05/26 09:46:27;;;;;;;2.17;0.73;;;18.70;48.60;;;;;;6187671;23;20004;-85
2021/05/26 09:49:18;;;;;;;3.03;0.70;;;18.70;47.50;;;;;;6186695;23;20004;-85
2021/05/26 09:51:55;;;;;;;2.92;0.95;;;18.90;47.20;;;;;;6214663;23;20004;-84
2021/05/26 09:54:28;;;;;;;2.40;0.70;;;18.90;46.50;;;;;;6186711;23;20009;-84
2021/05/26 09:57:07;;;;;;;2.08;0.93;;;19.00;46.80;;;;;;6186605;23;20035;-85
2021/05/26 09:59:35;;;;;;;2.45;0.80;;;19.10;46.10;;;;;;6187593;23;20015;-84
2021/05/26 10:02:06;;;;;;;3.50;0.95;;;19.10;46.20;;;;;;6188185;23;20095;-84
2021/05/26 10:04:31;;;;;;;1.92;0.90;;;19.10;46.10;;;;;;6213878;23;20427;-84
2021/05/26 10:07:03;;;;;;;3.60;0.82;;;19.20;46.10;;;;;;6188278;23;20011;-84
2021/05/26 10:09:33;;;;;;;3.10;0.90;;;19.40;45.80;;;;;;6214381;23;20047;-85
2021/05/26 10:12:02;;;;;;;3.63;0.82;;;19.40;45.60;;;;;;6187467;23;20005;-86
2021/05/26 10:14:28;;;;;;;1.48;0.70;;;19.40;45.70;;;;;;6187903;23;20008;-84
2021/05/26 10:16:55;;;;;;;1.80;0.55;;;19.40;45.50;;;;;;6214490;23;20000;-84
2021/05/26 10:19:23;;;;;;;3.75;0.82;;;19.50;45.60;;;;;;6187584;23;20036;-84
2021/05/26 10:21:50;;;;;;;2.58;0.77;;;19.60;45.50;;;;;;6189112;23;20423;-85
2021/05/26 10:24:20;;;;;;;2.30;0.90;;;19.70;45.40;;;;;;6190424;23;20334;-85
2021/05/26 10:26:50;;;;;;;4.60;1.20;;;19.80;45.20;;;;;;6189250;23;19997;-84
2021/05/26 10:29:31;;;;;;;1.73;0.82;;;19.90;45.10;;;;;;6192169;23;20000;-84
2021/05/26 10:31:56;;;;;;;3.45;1.35;;;20.00;45.10;;;;;;6192011;23;20008;-84
2021/05/26 10:34:42;;;;;;;2.42;0.75;;;20.10;45.20;;;;;;6217730;23;20004;-84
2021/05/26 10:37:09;;;;;;;3.60;1.00;;;20.20;45.00;;;;;;6190007;23;20004;-84
2021/05/26 10:39:35;;;;;;;1.67;0.75;;;20.20;45.00;;;;;;6216780;23;20012;-84
2021/05/26 10:42:01;;;;;;;1.67;0.70;;;20.40;44.80;;;;;;6190239;23;20510;-84
2021/05/26 10:44:55;;;;;;;2.60;0.80;;;20.40;44.30;;;;;;6184561;23;20013;-84
2021/05/26 10:47:37;;;;;;;1.65;0.82;;;20.40;44.20;;;;;;6184886;23;20408;-84
2021/05/26 10:50:06;;;;;;;5.30;1.20;;;20.40;43.80;;;;;;6184629;23;20313;-85
2021/05/26 10:52:58;;;;;;;1.67;0.90;;;20.50;44.00;;;;;;6179832;23;20032;-85
2021/05/26 10:55:38;;;;;;;2.42;1.10;;;20.60;43.80;;;;;;6182839;23;20005;-84
2021/05/26 10:58:41;;;;;;;3.72;1.33;;;20.60;43.40;;;;;;6184767;23;20431;-85
2021/05/26 11:01:08;;;;;;;1.80;0.70;;;20.70;43.60;;;;;;6184507;23;20009;-84
2021/05/26 11:03:38;;;;;;;1.30;0.80;;;20.80;43.80;;;;;;6183886;23;20012;-84
2021/05/26 11:06:13;;;;;;;2.58;0.90;;;20.90;43.50;;;;;;6184497;23;20339;-84
2021/05/26 11:08:48;;;;;;;1.23;0.77;;;21.00;43.40;;;;;;6183772;23;20005;-84
2021/05/26 11:11:39;;;;;;;5.38;0.85;;;20.90;43.10;;;;;;6182218;23;20025;-85
2021/05/26 11:14:14;;;;;;;5.53;0.82;;;20.90;42.60;;;;;;6183744;23;20129;-85
2021/05/26 11:16:52;;;;;;;1.98;0.90;;;21.00;42.90;;;;;;6181854;23;20013;-84
2021/05/26 11:19:25;;;;;;;1.98;0.85;;;21.10;42.90;;;;;;6184540;23;20032;-84
2021/05/26 11:22:07;;;;;;;2.63;0.82;;;21.20;42.80;;;;;;6183838;23;20403;-86
2021/05/26 11:24:35;;;;;;;3.57;1.00;;;21.30;42.50;;;;;;6183453;23;20005;-86
2021/05/26 11:27:19;;;;;;;3.72;1.20;;;21.40;42.50;;;;;;6181026;23;20005;-86
2021/05/26 11:29:49;;;;;;;8.10;2.00;;;21.30;42.90;;;;;;6181763;23;20009;-86
2021/05/26 11:32:16;;;;;;;2.80;1.15;;;21.30;41.90;;;;;;6184568;23;20036;-84
2021/05/26 11:34:44;;;;;;;3.05;1.15;;;21.20;41.60;;;;;;6183388;23;20001;-85
2021/05/26 11:37:12;;;;;;;6.28;1.00;;;21.10;41.60;;;;;;6183012;23;20005;-84
2021/05/26 11:39:38;;;;;;;3.38;0.93;;;21.20;41.80;;;;;;6183170;23;20458;-84
2021/05/26 11:42:11;;;;;;;5.18;2.45;;;21.10;42.00;;;;;;6184340;23;20001;-84
2021/05/26 11:44:55;;;;;;;2.95;1.00;;;21.00;41.50;;;;;;6182923;23;20044;-84
2021/05/26 11:47:38;;;;;;;2.28;1.00;;;21.20;42.10;;;;;;6182896;23;20824;-85
2021/05/26 11:50:13;;;;;;;3.08;1.02;;;21.40;41.50;;;;;;6184541;23;20001;-84
2021/05/26 11:52:42;;;;;;;3.65;1.15;;;21.40;41.30;;;;;;6183135;23;20013;-84
2021/05/26 11:55:08;;;;;;;1.80;0.82;;;21.50;41.20;;;;;;6182387;23;20005;-84
2021/05/26 11:57:35;;;;;;;1.70;0.73;;;21.60;41.40;;;;;;6176060;23;20439;-84
2021/05/26 12:00:02;;;;;;;3.92;1.20;;;21.50;41.30;;;;;;6181718;23;20009;-84
2021/05/26 12:02:29;;;;;;;5.60;1.70;;;21.60;40.90;;;;;;6182901;23;20012;-85
2021/05/26 12:04:55;;;;;;;1.52;0.90;;;21.70;40.60;;;;;;6183004;23;20071;-84
2021/05/26 12:07:28;;;;;;;1.65;1.00;;;21.70;39.60;;;;;;6183494;23;20012;-84
2021/05/26 12:10:00;;;;;;;2.58;1.00;;;21.60;38.40;;;;;;6183190;23;20012;-84
2021/05/26 12:12:27;;;;;;;2.67;1.23;;;21.50;39.00;;;;;;6182838;23;20001;-84
2021/05/26 12:14:53;;;;;;;2.90;1.17;;;21.40;39.30;;;;;;6183229;23;20016;-85
2021/05/26 12:17:20;;;;;;;2.22;0.90;;;21.40;39.90;;;;;;6183525;23;20005;-84
2021/05/26 12:19:47;;;;;;;3.90;1.15;;;21.40;40.20;;;;;;6182501;23;20028;-85
2021/05/26 12:22:19;;;;;;;2.65;1.08;;;21.40;40.10;;;;;;6183451;23;20012;-84
2021/05/26 12:24:59;;;;;;;3.92;1.27;;;21.50;39.90;;;;;;6182993;23;20001;-85
2021/05/26 12:27:36;;;;;;;5.53;0.98;;;21.60;39.60;;;;;;6181835;23;20005;-84
2021/05/26 12:30:11;;;;;;;3.45;0.93;;;21.60;39.40;;;;;;6183087;23;20339;-84
2021/05/26 12:32:37;;;;;;;4.53;1.17;;;21.70;39.60;;;;;;6180558;23;20030;-84
2021/05/26 12:35:03;;;;;;;6.13;1.05;;;21.80;39.30;;;;;;6182604;23;20423;-84
2021/05/26 12:37:40;;;;;;;3.72;1.00;;;21.80;39.50;;;;;;6182962;23;20005;-84
2021/05/26 12:40:07;;;;;;;3.38;1.17;;;21.80;39.60;;;;;;6182238;23;20020;-84
2021/05/26 12:42:37;;;;;;;2.60;1.35;;;21.70;39.80;;;;;;6182513;23;20005;-84
2021/05/26 12:45:16;;;;;;;2.70;1.00;;;21.70;40.10;;;;;;6183294;23;20021;-84
2021/05/26 12:47:42;;;;;;;2.10;1.20;;;21.70;40.60;;;;;;6185341;23;20031;-84
2021/05/26 12:50:14;;;;;;;2.35;1.23;;;21.70;40.20;;;;;;6182700;23;20001;-84
2021/05/26 12:52:42;;;;;;;4.05;1.05;;;21.60;40.20;;;;;;6182786;23;20029;-85
2021/05/26 12:55:11;;;;;;;1.67;1.00;;;21.60;40.30;;;;;;6183525;23;20012;-84
2021/05/26 12:57:39;;;;;;;1.80;0.85;;;21.50;40.60;;;;;;6184546;23;20085;-84
2021/05/26 13:00:12;;;;;;;4.18;0.98;;;21.50;41.00;;;;;;6182846;23;20090;-85
2021/05/26 13:02:41;;;;;;;1.35;0.85;;;21.40;41.50;;;;;;6182686;23;20558;-84